Millheim, Texas
Current Conditions -  °F | °C
As of 5:15 AM on Saturday 01 Nov 2014 (Local Time) from KELA Reporting Station
Clear Clear  
Wind Chill: 44°   Ceiling: Unl
Heat Index: 47°   Visibility: 10mi
Dew Point: 43°   Wind: 6mph
Humidity: 88%   Direction: 360°N
Pressure: 30.32"   Gusts: NA
Location:  29.7835°N, 96.2064°W
Report Text: KELA 011015Z AUTO 36005KT 10SM CLR 08/06 A3032 RMK AO2 T00810063
Loading
Personal Weather Stations






























Interactive Weather Map
Tropical Storm Tracking
New forecast layout! Learn more

10-Day Weather Forecast

Advertisements
Track Severe Weather on mobile